Terminal Aerodrome Forecast
Issued by NWS Knoxville/Tri Cities, TN

Home | Current Version | Previous Version | Text Only | Print | Product List | Glossary On
Versions: 1 2 3 4 5 6 7 8 9 10 11 12 13 14 15 16 17 18 19 20 21 22 23 24 25 26 27 28 29
000
FTUS44 KMRX 251125
TAFTRI
TAF
KTRI 251125Z 2512/2612 VRB02KT P6SM SCT035 BKN100
     FM251700 26004KT P6SM SCT050 SCT100
     FM260100 VRB02KT P6SM SCT250
     FM260900 00000KT 5SM BR SCT080=

USA.gov is the U.S. government's official web portal to all federal, state and local government web resources and services.